createdAt,value
2019-04-19T00:00:56.079Z,1001.02
2019-04-19T00:01:55.989Z,1001.01
2019-04-19T00:02:51.960Z,1000.99
2019-04-19T00:03:51.178Z,1001.01
2019-04-19T00:04:55.813Z,1001.00
2019-04-19T00:05:52.407Z,1001.02
2019-04-19T00:06:59.108Z,1001.03
2019-04-19T00:07:55.550Z,1001.05
2019-04-19T00:09:09.435Z,1001.02
2019-04-19T00:09:58.918Z,1001.04
2019-04-19T00:10:55.567Z,1001.00
2019-04-19T00:12:01.958Z,1001.00
2019-04-19T00:12:57.040Z,1001.01
2019-04-19T00:13:52.165Z,1001.01
2019-04-19T00:14:52.750Z,1001.02
2019-04-19T00:15:52.469Z,1001.00
2019-04-19T00:16:53.228Z,1000.98
2019-04-19T00:18:00.754Z,1001.00
2019-04-19T00:19:16.975Z,1000.97
2019-04-19T00:20:21.143Z,1001.02
2019-04-19T00:21:12.518Z,1000.99
2019-04-19T00:22:33.245Z,1000.98
2019-04-19T00:23:04.228Z,1000.95
2019-04-19T00:23:55.213Z,1001.00
2019-04-19T00:24:54.421Z,1000.97
2019-04-19T00:25:53.951Z,1000.98
2019-04-19T00:26:54.975Z,1000.98
2019-04-19T00:27:58.270Z,1000.98
2019-04-19T00:29:00.627Z,1000.94
2019-04-19T00:30:02.261Z,1000.97
2019-04-19T00:31:13.374Z,1000.94
2019-04-19T00:32:12.891Z,1000.94
2019-04-19T00:33:09.394Z,1000.90
2019-04-19T00:33:58.821Z,1000.88
2019-04-19T00:34:55.280Z,1000.90
2019-04-19T00:35:55.888Z,1000.92
2019-04-19T00:36:55.576Z,1000.88
2019-04-19T00:38:02.376Z,1000.86
2019-04-19T00:39:14.981Z,1000.89
2019-04-19T00:40:15.407Z,1000.88
2019-04-19T00:41:14.400Z,1000.86
2019-04-19T00:42:16.562Z,1000.90
2019-04-19T00:43:10.371Z,1000.88
2019-04-19T00:44:13.431Z,1000.89
2019-04-19T00:45:15.629Z,1000.89
2019-04-19T00:46:06.645Z,1000.89
2019-04-19T00:47:12.831Z,1000.89
2019-04-19T00:48:08.719Z,1000.86
2019-04-19T00:49:10.152Z,1000.89
2019-04-19T00:50:07.243Z,1000.88
2019-04-19T00:51:09.896Z,1000.88
2019-04-19T00:52:12.422Z,1000.89
2019-04-19T00:53:13.480Z,1000.87
2019-04-19T00:54:07.286Z,1000.90
2019-04-19T00:55:08.238Z,1000.92
2019-04-19T00:56:06.566Z,1000.89
2019-04-19T00:57:05.829Z,1000.91
2019-04-19T00:58:08.388Z,1000.93
2019-04-19T00:59:03.755Z,1000.92
2019-04-19T00:59:59.777Z,1000.92
2019-04-19T01:01:09.170Z,1000.95
2019-04-19T01:02:05.446Z,1000.91
2019-04-19T01:03:01.025Z,1000.93
2019-04-19T01:03:59.573Z,1000.92
2019-04-19T01:05:04.496Z,1000.93
2019-04-19T01:06:05.388Z,1000.89
2019-04-19T01:07:03.479Z,1000.92
2019-04-19T01:08:09.358Z,1000.94
2019-04-19T01:09:16.720Z,1000.93
2019-04-19T01:10:16.006Z,1000.92
2019-04-19T01:11:12.874Z,1000.96
2019-04-19T01:12:15.643Z,1000.96
2019-04-19T01:13:10.936Z,1000.94
2019-04-19T01:14:16.980Z,1000.95
2019-04-19T01:15:15.672Z,1000.96
2019-04-19T01:16:14.934Z,1000.93
2019-04-19T01:17:16.366Z,1000.93
2019-04-19T01:18:15.136Z,1000.94
2019-04-19T01:19:08.032Z,1000.93
2019-04-19T01:20:06.394Z,1000.95
2019-04-19T01:21:02.948Z,1000.94
2019-04-19T01:22:09.742Z,1000.96
2019-04-19T01:23:07.164Z,1000.97
2019-04-19T01:24:05.026Z,1000.94
2019-04-19T01:25:13.986Z,1000.90
2019-04-19T01:26:05.761Z,1000.94
2019-04-19T01:27:02.960Z,1000.94
2019-04-19T01:28:08.866Z,1000.92
2019-04-19T01:29:08.488Z,1000.97
2019-04-19T01:30:04.507Z,1000.91
2019-04-19T01:31:10.058Z,1000.95
2019-04-19T01:32:09.789Z,1000.99
2019-04-19T01:33:05.424Z,1000.99
2019-04-19T01:34:14.713Z,1000.99
2019-04-19T01:35:08.153Z,1000.99
2019-04-19T01:36:04.386Z,1000.96
2019-04-19T01:37:11.295Z,1001.02
2019-04-19T01:38:08.099Z,1001.00
2019-04-19T01:39:24.288Z,1000.96
2019-04-19T01:40:21.305Z,1001.03
2019-04-19T01:41:21.020Z,1001.04
2019-04-19T01:42:24.731Z,1001.05
2019-04-19T01:43:23.722Z,1001.02
2019-04-19T01:45:24.025Z,1001.01
2019-04-19T01:46:19.070Z,1000.99
2019-04-19T01:47:27.858Z,1001.07
2019-04-19T01:48:26.986Z,1001.09
2019-04-19T01:49:15.935Z,1001.04
2019-04-19T01:50:17.373Z,1001.10
2019-04-19T01:51:20.018Z,1001.06
2019-04-19T01:52:31.531Z,1001.06
2019-04-19T01:53:24.440Z,1001.05
2019-04-19T01:54:26.739Z,1001.06
2019-04-19T01:55:15.022Z,1001.04
2019-04-19T01:56:10.876Z,1001.05
2019-04-19T01:57:09.745Z,1001.02
2019-04-19T01:58:12.922Z,1001.04
2019-04-19T01:59:07.843Z,1001.07
2019-04-19T02:00:11.439Z,1001.04
2019-04-19T02:01:14.744Z,1001.06
2019-04-19T02:02:12.641Z,1001.01
2019-04-19T02:03:09.784Z,1001.06
2019-04-19T02:04:14.503Z,1001.03
2019-04-19T02:05:13.147Z,1001.06
2019-04-19T02:06:12.694Z,1001.10
2019-04-19T02:07:13.454Z,1001.05
2019-04-19T02:08:12.568Z,1001.10
2019-04-19T02:09:09.124Z,1001.09
2019-04-19T02:10:19.757Z,1001.10
2019-04-19T02:11:23.230Z,1001.13
2019-04-19T02:12:26.422Z,1001.12
2019-04-19T02:13:19.823Z,1001.11
2019-04-19T02:14:16.562Z,1001.14
2019-04-19T02:15:15.664Z,1001.15
2019-04-19T02:16:15.594Z,1001.12
2019-04-19T02:17:12.991Z,1001.10
2019-04-19T02:18:11.515Z,1001.12
2019-04-19T02:19:16.263Z,1001.08
2019-04-19T02:20:11.979Z,1001.15
2019-04-19T02:21:13.131Z,1001.17
2019-04-19T02:22:17.324Z,1001.14
2019-04-19T02:23:14.649Z,1001.15
2019-04-19T02:24:12.531Z,1001.15
2019-04-19T02:25:17.423Z,1001.18
2019-04-19T02:26:14.633Z,1001.17
2019-04-19T02:27:14.750Z,1001.12
2019-04-19T02:28:18.222Z,1001.21
2019-04-19T02:29:16.830Z,1001.17
2019-04-19T02:30:28.193Z,1001.20
2019-04-19T02:31:41.627Z,1001.16
2019-04-19T02:32:32.571Z,1001.17
2019-04-19T02:33:37.687Z,1001.20
2019-04-19T02:35:34.875Z,1001.18
2019-04-19T02:36:49.316Z,1001.19
2019-04-19T02:37:43.771Z,1001.22
2019-04-19T02:38:52.103Z,1001.19
2019-04-19T02:40:52.545Z,1001.21
2019-04-19T02:41:38.508Z,1001.20
2019-04-19T02:45:00.723Z,1001.25
2019-04-19T02:45:35.931Z,1001.27
2019-04-19T02:47:44.529Z,1001.30
2019-04-19T02:48:51.652Z,1001.31
2019-04-19T02:49:46.904Z,1001.32
2019-04-19T02:51:50.318Z,1001.35
2019-04-19T02:53:39.435Z,1001.34
2019-04-19T02:55:03.842Z,1001.37
2019-04-19T02:55:47.487Z,1001.35
2019-04-19T02:56:51.866Z,1001.39
2019-04-19T02:57:45.614Z,1001.35
2019-04-19T02:58:42.075Z,1001.38
2019-04-19T02:59:50.008Z,1001.40
2019-04-19T03:00:52.765Z,1001.36
2019-04-19T03:01:53.503Z,1001.39
2019-04-19T03:02:50.312Z,1001.35
2019-04-19T03:04:05.397Z,1001.40
2019-04-19T03:04:53.368Z,1001.39
2019-04-19T03:05:36.612Z,1001.35
2019-04-19T03:06:29.206Z,1001.37
2019-04-19T03:07:17.669Z,1001.37
2019-04-19T03:08:18.598Z,1001.38
2019-04-19T03:09:17.925Z,1001.38
2019-04-19T03:10:22.448Z,1001.42
2019-04-19T03:11:36.485Z,1001.39
2019-04-19T03:12:37.945Z,1001.45
2019-04-19T03:13:32.778Z,1001.42
2019-04-19T03:14:31.550Z,1001.39
2019-04-19T03:15:41.029Z,1001.43
2019-04-19T03:16:38.564Z,1001.43
2019-04-19T03:17:40.195Z,1001.40
2019-04-19T03:18:37.393Z,1001.39
2019-04-19T03:19:37.360Z,1001.42
2019-04-19T03:20:34.821Z,1001.43
2019-04-19T03:21:40.768Z,1001.42
2019-04-19T03:22:35.740Z,1001.44
2019-04-19T03:23:34.188Z,1001.46
2019-04-19T03:24:36.890Z,1001.44
2019-04-19T03:25:32.951Z,1001.45
2019-04-19T03:26:36.237Z,1001.45
2019-04-19T03:27:29.682Z,1001.44
2019-04-19T03:28:31.340Z,1001.45
2019-04-19T03:29:29.425Z,1001.44
2019-04-19T03:30:46.798Z,1001.43
2019-04-19T03:31:50.700Z,1001.47
2019-04-19T03:33:54.785Z,1001.50
2019-04-19T03:34:57.244Z,1001.48
2019-04-19T03:35:45.380Z,1001.53
2019-04-19T03:36:36.828Z,1001.50
2019-04-19T03:37:39.664Z,1001.52
2019-04-19T03:38:38.957Z,1001.47
2019-04-19T03:39:48.889Z,1001.50
2019-04-19T03:40:39.127Z,1001.53
2019-04-19T03:41:57.456Z,1001.51
2019-04-19T03:43:42.770Z,1001.55
2019-04-19T03:44:36.060Z,1001.58
2019-04-19T03:45:44.247Z,1001.57
2019-04-19T03:46:49.788Z,1001.57
2019-04-19T03:47:44.639Z,1001.53
2019-04-19T03:48:46.275Z,1001.56
2019-04-19T03:49:38.860Z,1001.59
2019-04-19T03:50:37.535Z,1001.59
2019-04-19T03:51:51.024Z,1001.57
2019-04-19T03:52:43.999Z,1001.61
2019-04-19T03:54:38.895Z,1001.61
2019-04-19T03:55:43.148Z,1001.61
2019-04-19T03:56:37.773Z,1001.63
2019-04-19T03:57:35.466Z,1001.64
2019-04-19T03:58:27.041Z,1001.63
2019-04-19T03:59:25.232Z,1001.63
2019-04-19T04:00:26.079Z,1001.63
2019-04-19T04:01:27.985Z,1001.61
2019-04-19T04:02:34.023Z,1001.59
2019-04-19T04:03:31.301Z,1001.62
2019-04-19T04:04:29.278Z,1001.63
2019-04-19T04:05:29.443Z,1001.65
2019-04-19T04:06:32.366Z,1001.64
2019-04-19T04:07:29.438Z,1001.63
2019-04-19T04:08:28.018Z,1001.62
2019-04-19T04:09:34.588Z,1001.65
2019-04-19T04:10:34.082Z,1001.63
2019-04-19T04:11:29.852Z,1001.69
2019-04-19T04:12:38.009Z,1001.69
2019-04-19T04:13:37.857Z,1001.69
2019-04-19T04:14:41.342Z,1001.68
2019-04-19T04:15:45.851Z,1001.72
2019-04-19T04:16:35.939Z,1001.71
2019-04-19T04:17:28.907Z,1001.69
2019-04-19T04:18:28.235Z,1001.71
2019-04-19T04:19:29.284Z,1001.75
2019-04-19T04:20:28.522Z,1001.72
2019-04-19T04:21:35.529Z,1001.72
2019-04-19T04:22:33.487Z,1001.75
2019-04-19T04:23:36.481Z,1001.74
2019-04-19T04:24:35.907Z,1001.72
2019-04-19T04:25:39.787Z,1001.76
2019-04-19T04:26:35.335Z,1001.78
2019-04-19T04:27:45.559Z,1001.80
2019-04-19T04:28:44.952Z,1001.82
2019-04-19T04:29:38.653Z,1001.85
2019-04-19T04:30:36.957Z,1001.83
2019-04-19T04:31:43.603Z,1001.85
2019-04-19T04:32:43.114Z,1001.87
2019-04-19T04:33:42.340Z,1001.90
2019-04-19T04:34:41.035Z,1001.91
2019-04-19T04:36:50.547Z,1001.96
2019-04-19T04:37:44.661Z,1001.96
2019-04-19T04:38:37.276Z,1001.97
2019-04-19T04:39:32.323Z,1001.95
2019-04-19T04:40:31.755Z,1001.97
2019-04-19T04:41:33.261Z,1001.96
2019-04-19T04:42:39.508Z,1001.99
2019-04-19T04:43:43.767Z,1001.97
2019-04-19T04:44:50.476Z,1001.99
2019-04-19T04:45:58.181Z,1002.02
2019-04-19T04:46:57.743Z,1002.03
2019-04-19T04:47:47.757Z,1002.02
2019-04-19T04:48:52.673Z,1002.05
2019-04-19T04:49:55.114Z,1002.06
2019-04-19T04:50:57.484Z,1002.06
2019-04-19T04:51:49.529Z,1002.05
2019-04-19T04:52:37.825Z,1002.08
2019-04-19T04:53:34.177Z,1002.05
2019-04-19T04:54:33.452Z,1002.09
2019-04-19T04:55:36.779Z,1002.12
2019-04-19T04:56:45.758Z,1002.16
2019-04-19T04:57:42.905Z,1002.13
2019-04-19T04:58:38.550Z,1002.18
2019-04-19T04:59:34.967Z,1002.18
2019-04-19T05:00:44.356Z,1002.22
2019-04-19T05:01:47.578Z,1002.21
2019-04-19T05:02:51.287Z,1002.23
2019-04-19T05:03:54.070Z,1002.23
2019-04-19T05:04:43.543Z,1002.24
2019-04-19T05:05:54.328Z,1002.24
2019-04-19T05:06:59.354Z,1002.26
2019-04-19T05:07:53.252Z,1002.28
2019-04-19T05:08:50.098Z,1002.27
2019-04-19T05:09:53.135Z,1002.30
2019-04-19T05:10:49.555Z,1002.32
2019-04-19T05:12:03.154Z,1002.30
2019-04-19T05:13:10.688Z,1002.33
2019-04-19T05:13:58.961Z,1002.31
2019-04-19T05:14:51.241Z,1002.34
2019-04-19T05:15:52.952Z,1002.37
2019-04-19T05:17:04.385Z,1002.38
2019-04-19T05:17:58.271Z,1002.39
2019-04-19T05:18:55.667Z,1002.44
2019-04-19T05:19:59.011Z,1002.42
2019-04-19T05:20:50.914Z,1002.46
2019-04-19T05:21:50.881Z,1002.44
2019-04-19T05:22:55.051Z,1002.40
2019-04-19T05:23:59.557Z,1002.45
2019-04-19T05:25:05.081Z,1002.47
2019-04-19T05:25:56.317Z,1002.45
2019-04-19T05:26:57.619Z,1002.51
2019-04-19T05:27:55.202Z,1002.46
2019-04-19T05:28:54.405Z,1002.49
2019-04-19T05:29:45.924Z,1002.47
2019-04-19T05:30:46.963Z,1002.54
2019-04-19T05:31:45.853Z,1002.52
2019-04-19T05:32:43.949Z,1002.53
2019-04-19T05:33:51.673Z,1002.55
2019-04-19T05:34:54.926Z,1002.54
2019-04-19T05:35:57.795Z,1002.53
2019-04-19T05:37:01.471Z,1002.56
2019-04-19T05:37:59.756Z,1002.57
2019-04-19T05:38:59.810Z,1002.58
2019-04-19T05:39:59.560Z,1002.52
2019-04-19T05:40:53.466Z,1002.55
2019-04-19T05:41:56.105Z,1002.55
2019-04-19T05:42:56.551Z,1002.55
2019-04-19T05:44:15.350Z,1002.60
2019-04-19T05:45:15.425Z,1002.53
2019-04-19T05:46:05.131Z,1002.51
2019-04-19T05:47:01.251Z,1002.55
2019-04-19T05:47:53.939Z,1002.59
2019-04-19T05:48:48.725Z,1002.55
2019-04-19T05:49:56.423Z,1002.57
2019-04-19T05:51:09.076Z,1002.57
2019-04-19T05:52:05.471Z,1002.58
2019-04-19T05:52:55.078Z,1002.59
2019-04-19T05:53:48.162Z,1002.58
2019-04-19T05:54:42.974Z,1002.64
2019-04-19T05:55:43.421Z,1002.57
2019-04-19T05:56:45.112Z,1002.63
2019-04-19T05:57:58.008Z,1002.63
2019-04-19T05:58:54.725Z,1002.63
2019-04-19T05:59:52.888Z,1002.63
2019-04-19T06:00:55.222Z,1002.61
2019-04-19T06:01:59.118Z,1002.60
2019-04-19T06:02:56.791Z,1002.64
2019-04-19T06:03:57.413Z,1002.70
2019-04-19T06:05:10.381Z,1002.67
2019-04-19T06:06:10.627Z,1002.62
2019-04-19T06:07:04.852Z,1002.62
2019-04-19T06:07:57.223Z,1002.64
2019-04-19T06:08:45.613Z,1002.66
2019-04-19T06:09:45.487Z,1002.65
2019-04-19T06:10:51.369Z,1002.68
2019-04-19T06:11:46.223Z,1002.69
2019-04-19T06:12:45.288Z,1002.70
2019-04-19T06:13:56.046Z,1002.72
2019-04-19T06:15:08.150Z,1002.71
2019-04-19T06:16:07.555Z,1002.69
2019-04-19T06:16:58.544Z,1002.72
2019-04-19T06:18:00.516Z,1002.70
2019-04-19T06:18:55.887Z,1002.69
2019-04-19T06:20:04.407Z,1002.72
2019-04-19T06:21:10.471Z,1002.70
2019-04-19T06:21:57.125Z,1002.72
2019-04-19T06:23:07.136Z,1002.75
2019-04-19T06:24:07.458Z,1002.74
2019-04-19T06:25:01.130Z,1002.78
2019-04-19T06:26:35.127Z,1002.73
2019-04-19T06:27:13.284Z,1002.76
2019-04-19T06:28:36.963Z,1002.78
2019-04-19T06:29:22.624Z,1002.78
2019-04-19T06:30:11.864Z,1002.80
2019-04-19T06:31:12.866Z,1002.77
2019-04-19T06:32:07.438Z,1002.78
2019-04-19T06:33:07.241Z,1002.75
2019-04-19T06:34:08.934Z,1002.75
2019-04-19T06:35:02.495Z,1002.79
2019-04-19T06:35:53.947Z,1002.76
2019-04-19T06:36:58.624Z,1002.76
2019-04-19T06:37:48.491Z,1002.77
2019-04-19T06:38:48.698Z,1002.73
2019-04-19T06:39:58.313Z,1002.75
2019-04-19T06:40:55.496Z,1002.76
2019-04-19T06:41:56.911Z,1002.80
2019-04-19T06:42:56.812Z,1002.81
2019-04-19T06:44:01.382Z,1002.78
2019-04-19T06:45:07.686Z,1002.79
2019-04-19T06:46:07.088Z,1002.82
2019-04-19T06:47:00.837Z,1002.78
2019-04-19T06:47:58.913Z,1002.76
2019-04-19T06:48:59.086Z,1002.79
2019-04-19T06:49:53.745Z,1002.78
2019-04-19T06:50:54.702Z,1002.77
2019-04-19T06:51:57.667Z,1002.78
2019-04-19T06:52:51.023Z,1002.82
2019-04-19T06:53:58.237Z,1002.81
2019-04-19T06:54:51.719Z,1002.81
2019-04-19T06:55:53.558Z,1002.80
2019-04-19T06:57:00.727Z,1002.78
2019-04-19T06:58:01.562Z,1002.80
2019-04-19T06:59:02.890Z,1002.82
2019-04-19T07:00:02.743Z,1002.84
2019-04-19T07:01:04.469Z,1002.83
2019-04-19T07:01:55.872Z,1002.82
2019-04-19T07:02:52.216Z,1002.81
2019-04-19T07:03:53.653Z,1002.81
2019-04-19T07:05:10.625Z,1002.81
2019-04-19T07:06:09.171Z,1002.82
2019-04-19T07:07:10.578Z,1002.88
2019-04-19T07:08:38.676Z,1002.92
2019-04-19T07:09:21.408Z,1002.92
2019-04-19T07:10:18.078Z,1002.92
2019-04-19T07:11:16.285Z,1002.94
2019-04-19T07:12:14.841Z,1002.92
2019-04-19T07:13:09.813Z,1002.95
2019-04-19T07:14:04.823Z,1002.92
2019-04-19T07:15:23.785Z,1002.93
2019-04-19T07:16:30.421Z,1002.94
2019-04-19T07:17:13.647Z,1002.92
2019-04-19T07:18:12.779Z,1002.89
2019-04-19T07:19:13.433Z,1002.89
2019-04-19T07:20:11.295Z,1002.92
2019-04-19T07:21:16.386Z,1002.91
2019-04-19T07:22:09.661Z,1002.94
2019-04-19T07:23:10.235Z,1002.92
2019-04-19T07:24:28.010Z,1002.97
2019-04-19T07:25:20.089Z,1002.96
2019-04-19T07:26:15.598Z,1002.95
2019-04-19T07:27:13.900Z,1002.93
2019-04-19T07:28:08.163Z,1002.99
2019-04-19T07:28:56.145Z,1002.97
2019-04-19T07:30:00.298Z,1002.99
2019-04-19T07:31:01.510Z,1002.98
2019-04-19T07:31:57.619Z,1002.96
2019-04-19T07:33:04.554Z,1002.93
2019-04-19T07:34:08.788Z,1002.93
2019-04-19T07:35:11.575Z,1002.94
2019-04-19T07:36:17.162Z,1002.97
2019-04-19T07:37:17.157Z,1002.99
2019-04-19T07:38:25.202Z,1002.96
2019-04-19T07:39:13.344Z,1002.93
2019-04-19T07:40:17.524Z,1002.95
2019-04-19T07:41:16.670Z,1002.96
2019-04-19T07:42:19.389Z,1003.02
2019-04-19T07:43:10.663Z,1002.99
2019-04-19T07:44:12.486Z,1003.03
2019-04-19T07:45:04.921Z,1003.01
2019-04-19T07:46:19.589Z,1003.00
2019-04-19T07:47:11.484Z,1003.06
2019-04-19T07:48:06.099Z,1003.00
2019-04-19T07:48:59.903Z,1003.06
2019-04-19T07:50:08.335Z,1003.03
2019-04-19T07:51:05.931Z,1003.04
2019-04-19T07:52:11.524Z,1003.04
2019-04-19T07:53:02.575Z,1003.07
2019-04-19T07:54:00.656Z,1003.10
2019-04-19T07:55:04.411Z,1003.11
2019-04-19T07:56:13.354Z,1003.06
2019-04-19T07:57:22.612Z,1003.09
2019-04-19T07:58:35.298Z,1003.15
2019-04-19T07:59:30.607Z,1003.11
2019-04-19T08:00:37.555Z,1003.13
2019-04-19T08:02:30.022Z,1003.14
2019-04-19T08:03:36.294Z,1003.17
2019-04-19T08:04:54.513Z,1003.17
2019-04-19T08:07:41.517Z,1003.20
2019-04-19T08:09:43.104Z,1003.16
2019-04-19T08:10:27.846Z,1003.18
2019-04-19T08:12:25.739Z,1003.17
2019-04-19T08:13:53.956Z,1003.20
2019-04-19T08:14:40.101Z,1003.23
2019-04-19T08:16:47.409Z,1003.22
2019-04-19T08:27:27.955Z,1003.18
2019-04-19T08:28:18.435Z,1003.19
2019-04-19T08:29:17.249Z,1003.18
2019-04-19T08:30:12.244Z,1003.21
2019-04-19T08:31:07.822Z,1003.18
2019-04-19T08:32:06.868Z,1003.17
2019-04-19T08:33:06.485Z,1003.15
2019-04-19T08:34:09.303Z,1003.15
2019-04-19T08:35:09.386Z,1003.16
2019-04-19T08:36:09.503Z,1003.17
2019-04-19T08:37:18.401Z,1003.22
2019-04-19T08:38:10.213Z,1003.20
2019-04-19T08:39:23.088Z,1003.20
2019-04-19T08:40:27.808Z,1003.21
2019-04-19T08:41:18.895Z,1003.13
2019-04-19T08:42:26.721Z,1003.17
2019-04-19T08:44:21.840Z,1003.18
2019-04-19T08:45:11.893Z,1003.24
2019-04-19T08:46:08.991Z,1003.22
2019-04-19T08:47:21.901Z,1003.17
2019-04-19T08:48:15.378Z,1003.18
2019-04-19T08:49:13.127Z,1003.20
2019-04-19T08:50:10.995Z,1003.20
2019-04-19T08:51:09.986Z,1003.24
2019-04-19T08:52:12.914Z,1003.19
2019-04-19T08:53:28.224Z,1003.18
2019-04-19T08:54:31.798Z,1003.18
2019-04-19T08:55:33.785Z,1003.19
2019-04-19T08:56:25.260Z,1003.16
2019-04-19T08:57:15.616Z,1003.16
2019-04-19T08:58:23.879Z,1003.18
2019-04-19T08:59:36.176Z,1003.18
2019-04-19T09:00:42.852Z,1003.16
2019-04-19T09:01:33.318Z,1003.17
2019-04-19T09:02:28.742Z,1003.17
2019-04-19T09:03:35.703Z,1003.16
2019-04-19T09:04:30.415Z,1003.18
2019-04-19T09:05:27.274Z,1003.19
2019-04-19T09:07:08.344Z,1003.14
2019-04-19T09:08:34.673Z,1003.15
2019-04-19T09:09:32.649Z,1003.14
2019-04-19T09:10:30.613Z,1003.07
2019-04-19T09:11:31.551Z,1003.08
2019-04-19T09:12:33.485Z,1003.05
2019-04-19T09:13:33.940Z,1003.06
2019-04-19T09:14:38.149Z,1003.06
2019-04-19T09:15:29.060Z,1003.10
2019-04-19T09:16:32.563Z,1003.08
2019-04-19T09:17:46.154Z,1003.05
2019-04-19T09:18:40.196Z,1003.06
2019-04-19T09:19:56.948Z,1003.04
2019-04-19T09:20:34.406Z,1003.06
2019-04-19T09:21:27.391Z,1003.06
2019-04-19T09:22:32.777Z,1003.02
2019-04-19T09:23:27.256Z,1003.00
2019-04-19T09:24:23.045Z,1002.93
2019-04-19T09:25:24.422Z,1002.89
2019-04-19T09:26:30.471Z,1002.94
2019-04-19T09:27:39.536Z,1002.91
2019-04-19T09:28:42.474Z,1002.94
2019-04-19T09:29:53.536Z,1002.95
2019-04-19T09:30:33.612Z,1002.90
2019-04-19T09:31:29.804Z,1002.90
2019-04-19T09:32:20.872Z,1002.87
2019-04-19T09:33:23.628Z,1002.91
2019-04-19T09:34:18.705Z,1002.90
2019-04-19T09:35:19.267Z,1002.86
2019-04-19T09:36:18.710Z,1002.88
2019-04-19T09:37:23.883Z,1002.92
2019-04-19T09:38:29.601Z,1002.90
2019-04-19T09:39:31.508Z,1002.88
2019-04-19T09:40:27.442Z,1002.89
2019-04-19T09:41:24.764Z,1002.87
2019-04-19T09:42:32.619Z,1002.89
2019-04-19T09:43:32.065Z,1002.92
2019-04-19T09:44:25.764Z,1002.89
2019-04-19T09:45:16.986Z,1002.83
2019-04-19T09:46:17.141Z,1002.84
2019-04-19T09:47:18.653Z,1002.83
2019-04-19T09:48:36.346Z,1002.81
2019-04-19T09:49:36.862Z,1002.82
2019-04-19T09:50:33.728Z,1002.83
2019-04-19T09:51:35.295Z,1002.81
2019-04-19T09:52:44.120Z,1002.85
2019-04-19T09:53:59.062Z,1002.80
2019-04-19T09:54:39.095Z,1002.79
2019-04-19T09:55:43.255Z,1002.75
2019-04-19T09:56:38.331Z,1002.65
2019-04-19T09:57:38.561Z,1002.70
2019-04-19T09:58:35.236Z,1002.69
2019-04-19T09:59:27.158Z,1002.69
2019-04-19T10:00:23.565Z,1002.74
2019-04-19T10:01:23.175Z,1002.76
2019-04-19T10:02:28.886Z,1002.73
2019-04-19T10:03:28.059Z,1002.69
2019-04-19T10:04:20.942Z,1002.73
2019-04-19T10:05:20.966Z,1002.58
2019-04-19T10:06:20.687Z,1002.62
2019-04-19T10:07:20.822Z,1002.65
2019-04-19T10:08:21.786Z,1002.63
2019-04-19T10:09:22.368Z,1002.64
2019-04-19T10:10:20.910Z,1002.57
2019-04-19T10:11:21.089Z,1002.61
2019-04-19T10:12:21.618Z,1002.64
2019-04-19T10:13:21.704Z,1002.63
2019-04-19T10:14:21.541Z,1002.63
2019-04-19T10:15:22.301Z,1002.59
2019-04-19T10:16:22.188Z,1002.54
2019-04-19T10:17:22.535Z,1002.53
2019-04-19T10:18:22.858Z,1002.51
2019-04-19T10:19:22.294Z,1002.58
2019-04-19T10:20:22.684Z,1002.60
2019-04-19T10:21:29.611Z,1002.61
2019-04-19T10:22:23.053Z,1002.63
2019-04-19T10:23:23.108Z,1002.62
2019-04-19T10:24:24.264Z,1002.64
2019-04-19T10:25:23.347Z,1002.62
2019-04-19T10:26:24.249Z,1002.60
2019-04-19T10:27:24.746Z,1002.64
2019-04-19T10:28:24.243Z,1002.64
2019-04-19T10:29:30.571Z,1002.70
2019-04-19T10:30:24.495Z,1002.69
2019-04-19T10:31:25.367Z,1002.72
2019-04-19T10:32:24.525Z,1002.64
2019-04-19T10:33:33.152Z,1002.65
2019-04-19T10:34:24.947Z,1002.67
2019-04-19T10:35:25.337Z,1002.69
2019-04-19T10:36:24.969Z,1002.67
2019-04-19T10:37:25.925Z,1002.63
2019-04-19T10:38:25.516Z,1002.58
2019-04-19T10:39:25.840Z,1002.60
2019-04-19T10:40:25.857Z,1002.59
2019-04-19T10:41:25.755Z,1002.53
2019-04-19T10:42:27.177Z,1002.54
2019-04-19T10:43:27.313Z,1002.53
2019-04-19T10:44:27.155Z,1002.53
2019-04-19T10:45:26.389Z,1002.55
2019-04-19T10:46:26.879Z,1002.55
2019-04-19T10:47:29.178Z,1002.55
2019-04-19T10:48:27.593Z,1002.52
2019-04-19T10:49:36.061Z,1002.55
2019-04-19T10:50:35.830Z,1002.56
2019-04-19T10:51:27.821Z,1002.56
2019-04-19T10:52:27.474Z,1002.56
2019-04-19T10:53:28.246Z,1002.60
2019-04-19T10:54:28.650Z,1002.60
2019-04-19T10:55:28.536Z,1002.56
2019-04-19T10:56:28.208Z,1002.50
2019-04-19T10:57:29.754Z,1002.51
2019-04-19T10:58:29.527Z,1002.56
2019-04-19T10:59:28.611Z,1002.49
2019-04-19T11:00:29.312Z,1002.41
2019-04-19T11:01:29.441Z,1002.48
2019-04-19T11:02:29.791Z,1002.46
2019-04-19T11:03:29.294Z,1002.45
2019-04-19T11:04:29.448Z,1002.42
2019-04-19T11:05:29.615Z,1002.46
2019-04-19T11:06:29.765Z,1002.38
2019-04-19T11:07:29.931Z,1002.42
2019-04-19T11:08:30.775Z,1002.40
2019-04-19T11:09:31.126Z,1002.41
2019-04-19T11:10:31.498Z,1002.40
2019-04-19T11:11:31.780Z,1002.47
2019-04-19T11:12:30.719Z,1002.45
2019-04-19T11:13:32.240Z,1002.45
2019-04-19T11:14:32.179Z,1002.45
2019-04-19T11:15:31.190Z,1002.50
2019-04-19T11:16:31.346Z,1002.46
2019-04-19T11:17:31.746Z,1002.46
2019-04-19T11:18:31.789Z,1002.48
2019-04-19T11:19:48.392Z,1002.43
2019-04-19T11:20:38.107Z,1002.40
2019-04-19T11:21:32.149Z,1002.43
2019-04-19T11:22:32.298Z,1002.44
2019-04-19T11:23:33.598Z,1002.43
2019-04-19T11:24:33.871Z,1002.42
2019-04-19T11:25:33.392Z,1002.37
2019-04-19T11:26:32.915Z,1002.38
2019-04-19T11:27:33.150Z,1002.35
2019-04-19T11:28:34.341Z,1002.37
2019-04-19T11:29:34.543Z,1002.31
2019-04-19T11:30:34.976Z,1002.36
2019-04-19T11:31:33.935Z,1002.36
2019-04-19T11:32:33.876Z,1002.36
2019-04-19T11:33:34.944Z,1002.39
2019-04-19T11:34:35.172Z,1002.33
2019-04-19T11:35:35.242Z,1002.32
2019-04-19T11:36:35.659Z,1002.35
2019-04-19T11:37:35.034Z,1002.37
2019-04-19T11:38:34.895Z,1002.38
2019-04-19T11:39:35.102Z,1002.40
2019-04-19T11:40:35.380Z,1002.38
2019-04-19T11:41:35.361Z,1002.39
2019-04-19T11:42:35.518Z,1002.33
2019-04-19T11:43:35.760Z,1002.36
2019-04-19T11:44:35.990Z,1002.30
2019-04-19T11:45:36.001Z,1002.34
2019-04-19T11:46:36.154Z,1002.28
2019-04-19T11:47:37.537Z,1002.30
2019-04-19T11:48:37.540Z,1002.35
2019-04-19T11:49:40.277Z,1002.30
2019-04-19T11:50:37.835Z,1002.31
2019-04-19T11:51:36.941Z,1002.32
2019-04-19T11:52:37.725Z,1002.33
2019-04-19T11:53:38.482Z,1002.35
2019-04-19T11:54:38.540Z,1002.38
2019-04-19T11:55:38.368Z,1002.36
2019-04-19T11:56:46.294Z,1002.34
2019-04-19T11:57:38.740Z,1002.27
2019-04-19T11:58:38.370Z,1002.25
2019-04-19T11:59:44.422Z,1002.20
2019-04-19T12:00:38.360Z,1002.14
2019-04-19T12:01:39.730Z,1002.14
2019-04-19T12:02:39.696Z,1002.18
2019-04-19T12:03:41.634Z,1002.24
2019-04-19T12:04:39.991Z,1002.14
2019-04-19T12:05:40.013Z,1002.13
2019-04-19T12:06:40.550Z,1002.17
2019-04-19T12:07:39.462Z,1002.17
2019-04-19T12:08:42.180Z,1002.19
2019-04-19T12:09:40.679Z,1002.20
2019-04-19T12:10:39.931Z,1002.20
2019-04-19T12:11:40.273Z,1002.21
2019-04-19T12:12:41.269Z,1002.19
2019-04-19T12:13:41.176Z,1002.18
2019-04-19T12:14:41.676Z,1002.19
2019-04-19T12:15:42.087Z,1002.23
2019-04-19T12:16:41.307Z,1002.18
2019-04-19T12:17:42.050Z,1002.15
2019-04-19T12:18:42.387Z,1002.18
2019-04-19T12:19:49.711Z,1002.21
2019-04-19T12:20:42.714Z,1002.15
2019-04-19T12:21:41.663Z,1002.15
2019-04-19T12:22:41.947Z,1002.18
2019-04-19T12:23:41.971Z,1002.21
2019-04-19T12:24:42.643Z,1002.25
2019-04-19T12:25:42.282Z,1002.26
2019-04-19T12:26:42.438Z,1002.13
2019-04-19T12:27:43.610Z,1002.16
2019-04-19T12:28:43.800Z,1002.18
2019-04-19T12:29:47.725Z,1002.13
2019-04-19T12:30:45.208Z,1002.14
2019-04-19T12:31:43.333Z,1002.09
2019-04-19T12:32:43.569Z,1002.14
2019-04-19T12:33:43.558Z,1002.10
2019-04-19T12:34:44.670Z,1002.12
2019-04-19T12:35:43.871Z,1002.16
2019-04-19T12:36:44.031Z,1002.11
2019-04-19T12:37:45.006Z,1002.11